createdAt,value
2018-04-09T00:02:02.195Z,11.68
2018-04-09T00:04:29.703Z,11.63
2018-04-09T00:06:57.190Z,11.57
2018-04-09T00:09:24.728Z,11.49
2018-04-09T00:11:52.212Z,11.49
2018-04-09T00:14:19.943Z,11.48
2018-04-09T00:16:47.433Z,11.47
2018-04-09T00:19:14.931Z,11.41
2018-04-09T00:21:42.474Z,11.35
2018-04-09T00:24:10.052Z,11.36
2018-04-09T00:26:37.636Z,11.37
2018-04-09T00:29:05.150Z,11.34
2018-04-09T00:31:32.655Z,11.37
2018-04-09T00:34:00.194Z,11.34
2018-04-09T00:36:27.712Z,11.32
2018-04-09T00:38:55.209Z,11.18
2018-04-09T00:41:22.746Z,11.00
2018-04-09T00:43:50.239Z,10.87
2018-04-09T00:46:17.788Z,10.71
2018-04-09T00:48:45.284Z,10.67
2018-04-09T00:51:12.850Z,10.74
2018-04-09T00:53:52.121Z,10.77
2018-04-09T00:56:19.627Z,10.70
2018-04-09T00:58:47.164Z,10.72
2018-04-09T01:01:14.678Z,10.64
2018-04-09T01:03:42.155Z,10.42
2018-04-09T01:06:09.668Z,10.30
2018-04-09T01:08:37.275Z,10.38
2018-04-09T01:11:04.798Z,10.46
2018-04-09T01:13:32.505Z,10.55
2018-04-09T01:16:00.039Z,10.53
2018-04-09T01:18:27.538Z,10.56
2018-04-09T01:20:55.052Z,10.48
2018-04-09T01:23:22.580Z,10.47
2018-04-09T01:25:50.168Z,10.44
2018-04-09T01:28:17.688Z,10.33
2018-04-09T01:30:45.204Z,10.23
2018-04-09T01:33:12.694Z,10.25
2018-04-09T01:35:40.283Z,10.17
2018-04-09T01:38:07.853Z,10.16
2018-04-09T01:40:35.413Z,10.13
2018-04-09T01:43:02.907Z,10.16
2018-04-09T01:45:30.476Z,10.05
2018-04-09T01:47:57.959Z,10.12
2018-04-09T01:50:25.487Z,10.14
2018-04-09T01:52:52.991Z,10.12
2018-04-09T01:55:20.554Z,10.13
2018-04-09T01:57:48.069Z,10.12
2018-04-09T02:00:15.589Z,10.14
2018-04-09T02:02:43.100Z,10.13
2018-04-09T02:05:10.674Z,10.13
2018-04-09T02:07:38.576Z,10.11
2018-04-09T02:10:06.063Z,9.95
2018-04-09T02:12:33.616Z,9.96
2018-04-09T02:15:01.120Z,9.86
2018-04-09T02:17:28.615Z,9.78
2018-04-09T02:19:56.200Z,9.74
2018-04-09T02:22:23.743Z,9.70
2018-04-09T02:24:51.219Z,9.78
2018-04-09T02:27:19.005Z,9.82
2018-04-09T02:29:46.583Z,9.87
2018-04-09T02:32:14.092Z,9.92
2018-04-09T02:34:41.784Z,9.98
2018-04-09T02:37:09.301Z,10.10
2018-04-09T02:39:36.769Z,10.17
2018-04-09T02:42:04.270Z,10.16
2018-04-09T02:44:31.766Z,10.05
2018-04-09T02:46:59.287Z,10.14
2018-04-09T02:49:26.826Z,10.19
2018-04-09T02:51:54.339Z,10.26
2018-04-09T02:54:21.856Z,10.29
2018-04-09T02:56:49.365Z,9.99
2018-04-09T02:59:16.858Z,9.81
2018-04-09T03:01:44.427Z,9.98
2018-04-09T03:04:11.926Z,9.92
2018-04-09T03:06:39.531Z,10.02
2018-04-09T03:09:07.065Z,10.09
2018-04-09T03:11:34.646Z,10.06
2018-04-09T03:14:02.174Z,10.07
2018-04-09T03:16:29.686Z,10.18
2018-04-09T03:18:57.172Z,10.22
2018-04-09T03:21:24.708Z,10.24
2018-04-09T03:23:52.221Z,10.30
2018-04-09T03:26:19.805Z,10.26
2018-04-09T03:28:47.328Z,10.32
2018-04-09T03:31:14.849Z,10.37
2018-04-09T03:33:42.360Z,10.39
2018-04-09T03:36:09.952Z,10.42
2018-04-09T03:38:37.479Z,10.43
2018-04-09T03:41:04.988Z,10.43
2018-04-09T03:43:32.516Z,10.46
2018-04-09T03:46:00.027Z,10.19
2018-04-09T03:48:27.587Z,10.11
2018-04-09T03:50:55.128Z,10.12
2018-04-09T03:53:22.662Z,10.13
2018-04-09T03:55:50.171Z,10.21
2018-04-09T03:58:17.695Z,10.14
2018-04-09T04:00:45.223Z,10.10
2018-04-09T04:03:12.766Z,10.15
2018-04-09T04:05:40.335Z,10.16
2018-04-09T04:08:07.850Z,10.10
2018-04-09T04:10:35.336Z,10.02
2018-04-09T04:13:02.892Z,10.00
2018-04-09T04:15:42.151Z,9.99
2018-04-09T04:18:21.455Z,10.00
2018-04-09T04:21:00.767Z,9.99
2018-04-09T04:23:28.281Z,9.90
2018-04-09T04:25:55.805Z,9.88
2018-04-09T04:28:23.381Z,9.90
2018-04-09T04:30:51.590Z,9.91
2018-04-09T04:33:19.083Z,9.92
2018-04-09T04:35:46.560Z,9.96
2018-04-09T04:38:14.052Z,9.92
2018-04-09T04:40:41.540Z,9.87
2018-04-09T04:43:09.036Z,9.62
2018-04-09T04:45:36.563Z,9.65
2018-04-09T04:48:04.087Z,9.65
2018-04-09T04:50:31.561Z,9.65
2018-04-09T04:52:59.106Z,9.53
2018-04-09T04:55:26.701Z,9.43
2018-04-09T04:57:54.246Z,9.56
2018-04-09T05:00:21.784Z,9.67
2018-04-09T05:02:49.303Z,9.66
2018-04-09T05:05:16.870Z,9.79
2018-04-09T05:07:44.363Z,9.83
2018-04-09T05:10:11.869Z,9.76
2018-04-09T05:12:39.459Z,9.78
2018-04-09T05:15:06.979Z,9.86
2018-04-09T05:17:34.479Z,9.97
2018-04-09T05:20:02.008Z,10.07
2018-04-09T05:22:29.552Z,10.19
2018-04-09T05:24:57.117Z,9.92
2018-04-09T05:27:24.651Z,10.04
2018-04-09T05:29:52.163Z,10.16
2018-04-09T05:32:19.649Z,10.35
2018-04-09T05:34:47.171Z,10.38
2018-04-09T05:37:14.756Z,10.43
2018-04-09T05:39:42.276Z,10.42
2018-04-09T05:42:09.741Z,10.55
2018-04-09T05:44:37.289Z,10.53
2018-04-09T05:47:04.830Z,10.64
2018-04-09T05:49:32.381Z,10.74
2018-04-09T05:51:59.910Z,10.33
2018-04-09T05:54:27.445Z,10.36
2018-04-09T05:56:54.944Z,10.27
2018-04-09T05:59:22.502Z,10.19
2018-04-09T06:01:49.971Z,10.43
2018-04-09T06:04:17.518Z,10.57
2018-04-09T06:06:44.993Z,10.60
2018-04-09T06:09:12.523Z,10.65
2018-04-09T06:11:40.060Z,10.65
2018-04-09T06:14:07.577Z,10.72
2018-04-09T06:16:35.071Z,10.68
2018-04-09T06:19:02.599Z,10.64
2018-04-09T06:21:30.123Z,10.74
2018-04-09T06:23:58.001Z,10.81
2018-04-09T06:26:25.519Z,10.80
2018-04-09T06:28:53.016Z,10.83
2018-04-09T06:31:20.557Z,11.01
2018-04-09T06:33:48.051Z,11.04
2018-04-09T06:36:15.569Z,11.37
2018-04-09T06:38:43.117Z,11.67
2018-04-09T06:41:10.667Z,11.65
2018-04-09T06:43:38.155Z,11.68
2018-04-09T06:46:05.673Z,11.88
2018-04-09T06:48:33.213Z,11.99
2018-04-09T06:51:00.771Z,12.04
2018-04-09T06:53:28.263Z,11.88
2018-04-09T06:55:55.795Z,11.83
2018-04-09T06:58:23.277Z,11.79
2018-04-09T07:00:50.798Z,12.00
2018-04-09T07:03:18.381Z,11.91
2018-04-09T07:05:45.917Z,12.13
2018-04-09T07:08:13.497Z,12.24
2018-04-09T07:10:40.998Z,12.25
2018-04-09T07:13:08.584Z,12.12
2018-04-09T07:15:36.132Z,12.25
2018-04-09T07:18:03.670Z,12.35
2018-04-09T07:20:31.199Z,12.50
2018-04-09T07:22:58.739Z,12.48
2018-04-09T07:25:26.248Z,12.73
2018-04-09T07:27:53.833Z,12.63
2018-04-09T07:30:21.423Z,12.73
2018-04-09T07:32:49.007Z,12.75
2018-04-09T07:35:16.604Z,12.81
2018-04-09T07:37:44.171Z,12.98
2018-04-09T07:40:11.708Z,13.11
2018-04-09T07:42:39.244Z,13.17
2018-04-09T07:45:06.893Z,13.18
2018-04-09T07:47:34.396Z,13.29
2018-04-09T07:50:01.915Z,13.65
2018-04-09T07:52:29.488Z,13.87
2018-04-09T07:54:57.003Z,14.00
2018-04-09T07:57:24.566Z,14.26
2018-04-09T07:59:52.036Z,14.35
2018-04-09T08:02:19.567Z,14.44
2018-04-09T08:04:47.097Z,14.21
2018-04-09T08:07:14.675Z,14.17
2018-04-09T08:09:42.180Z,14.39
2018-04-09T08:12:09.759Z,14.51
2018-04-09T08:14:37.282Z,14.69
2018-04-09T08:17:04.856Z,15.21
2018-04-09T08:19:32.463Z,15.60
2018-04-09T08:22:00.003Z,15.42
2018-04-09T08:24:27.508Z,15.25
2018-04-09T08:26:55.037Z,15.79
2018-04-09T08:29:22.534Z,15.11
2018-04-09T08:31:50.072Z,15.48
2018-04-09T08:34:17.568Z,15.69
2018-04-09T08:36:45.106Z,15.26
2018-04-09T08:39:12.604Z,15.22
2018-04-09T08:41:40.160Z,15.42
2018-04-09T08:44:07.671Z,15.22
2018-04-09T08:46:35.235Z,15.60
2018-04-09T08:49:02.744Z,15.60
2018-04-09T08:51:30.266Z,15.83
2018-04-09T08:53:57.800Z,15.70
2018-04-09T08:56:25.334Z,15.86
2018-04-09T08:58:52.844Z,16.03
2018-04-09T09:01:20.388Z,15.89
2018-04-09T09:03:47.878Z,15.96
2018-04-09T09:06:15.458Z,16.41
2018-04-09T09:08:42.971Z,16.14
2018-04-09T09:11:10.561Z,16.26
2018-04-09T09:13:38.101Z,15.72
2018-04-09T09:16:05.662Z,16.41
2018-04-09T09:18:33.212Z,16.22
2018-04-09T09:21:00.798Z,15.67
2018-04-09T09:23:28.331Z,15.85
2018-04-09T09:25:56.705Z,15.99
2018-04-09T09:28:24.242Z,15.90
2018-04-09T09:30:51.783Z,16.20
2018-04-09T09:33:19.336Z,15.72
2018-04-09T09:35:46.835Z,16.00
2018-04-09T09:38:14.349Z,15.90
2018-04-09T09:40:42.879Z,16.34
2018-04-09T09:43:10.456Z,16.39
2018-04-09T09:45:37.956Z,16.62
2018-04-09T09:48:05.465Z,16.93
2018-04-09T09:50:32.957Z,17.06
2018-04-09T09:53:00.475Z,16.46
2018-04-09T09:55:28.000Z,16.65
2018-04-09T09:57:55.521Z,17.01
2018-04-09T10:00:28.539Z,16.95
2018-04-09T10:02:56.168Z,16.70
2018-04-09T10:05:24.319Z,16.81
2018-04-09T10:07:51.891Z,17.27
2018-04-09T10:10:19.464Z,16.54
2018-04-09T10:12:47.004Z,17.02
2018-04-09T10:15:14.507Z,17.66
2018-04-09T10:17:42.020Z,17.06
2018-04-09T10:20:09.513Z,17.22
2018-04-09T10:22:37.029Z,17.22
2018-04-09T10:25:04.524Z,17.50
2018-04-09T10:27:32.040Z,17.61
2018-04-09T10:29:59.568Z,17.64
2018-04-09T10:32:27.092Z,17.58
2018-04-09T10:34:54.664Z,16.99
2018-04-09T10:37:22.195Z,17.19
2018-04-09T10:39:49.783Z,17.51
2018-04-09T10:42:17.360Z,18.06
2018-04-09T10:44:44.895Z,18.49
2018-04-09T10:47:12.451Z,18.10
2018-04-09T10:49:40.058Z,17.93
2018-04-09T10:52:07.547Z,17.87
2018-04-09T10:54:35.087Z,17.73
2018-04-09T10:57:02.643Z,17.94
2018-04-09T10:59:30.247Z,17.06
2018-04-09T11:01:57.759Z,17.49
2018-04-09T11:04:25.280Z,17.45
2018-04-09T11:06:52.788Z,17.58
2018-04-09T11:09:20.319Z,17.90
2018-04-09T11:11:47.919Z,17.39
2018-04-09T11:14:15.467Z,18.22
2018-04-09T11:16:42.973Z,18.42
2018-04-09T11:19:10.497Z,18.22
2018-04-09T11:21:37.999Z,18.08
2018-04-09T11:24:05.500Z,18.68
2018-04-09T11:26:32.987Z,18.56
2018-04-09T11:29:00.515Z,19.18
2018-04-09T11:31:28.034Z,19.12
2018-04-09T11:33:55.547Z,19.38
2018-04-09T11:36:23.056Z,19.90
2018-04-09T11:38:56.473Z,19.25
2018-04-09T11:41:24.102Z,18.54
2018-04-09T11:43:52.912Z,19.19
2018-04-09T11:46:20.751Z,18.56
2018-04-09T11:48:48.300Z,18.48
2018-04-09T11:51:15.882Z,18.23
2018-04-09T11:53:43.386Z,18.69
2018-04-09T11:56:10.944Z,19.09
2018-04-09T11:58:38.477Z,19.48
2018-04-09T12:01:06.066Z,18.78
2018-04-09T12:03:33.606Z,18.76
2018-04-09T12:06:01.186Z,19.29
2018-04-09T12:08:28.733Z,19.68
2018-04-09T12:10:56.327Z,19.68
2018-04-09T12:13:23.852Z,19.77
2018-04-09T12:15:51.429Z,19.46
2018-04-09T12:18:18.995Z,18.59
2018-04-09T12:20:46.562Z,18.79
2018-04-09T12:23:14.254Z,18.84
2018-04-09T12:25:41.743Z,19.35
2018-04-09T12:28:09.334Z,19.41
2018-04-09T12:30:36.861Z,18.70
2018-04-09T12:33:04.337Z,18.34
2018-04-09T12:35:31.914Z,18.52
2018-04-09T12:37:59.409Z,19.15
2018-04-09T12:40:26.938Z,19.09
2018-04-09T12:42:54.466Z,18.85
2018-04-09T12:45:21.993Z,18.20
2018-04-09T12:47:49.486Z,18.83
2018-04-09T12:50:17.216Z,18.38
2018-04-09T12:52:44.709Z,18.75
2018-04-09T12:55:12.237Z,18.47
2018-04-09T12:57:39.750Z,18.31
2018-04-09T13:00:07.362Z,18.35
2018-04-09T13:02:34.844Z,18.35
2018-04-09T13:05:02.376Z,18.52
2018-04-09T13:07:29.856Z,18.61
2018-04-09T13:09:57.373Z,18.90
2018-04-09T13:12:24.857Z,18.72
2018-04-09T13:14:52.361Z,19.06
2018-04-09T13:17:20.052Z,18.54
2018-04-09T13:19:47.558Z,18.46
2018-04-09T13:22:15.053Z,18.30
2018-04-09T13:24:42.626Z,18.64
2018-04-09T13:27:10.114Z,18.49
2018-04-09T13:29:37.639Z,18.87
2018-04-09T13:32:06.939Z,18.58
2018-04-09T13:34:34.476Z,18.58
2018-04-09T13:37:02.223Z,19.14
2018-04-09T13:39:29.752Z,19.71
2018-04-09T13:41:57.259Z,19.56
2018-04-09T13:44:25.566Z,19.94
2018-04-09T13:46:53.097Z,19.34
2018-04-09T13:49:20.577Z,19.97
2018-04-09T13:51:48.091Z,20.44
2018-04-09T13:54:15.622Z,20.03
2018-04-09T13:56:43.144Z,19.70
2018-04-09T13:59:10.662Z,20.39
2018-04-09T14:01:38.337Z,21.22
2018-04-09T14:04:05.896Z,22.16
2018-04-09T14:06:33.401Z,22.72
2018-04-09T14:09:00.902Z,22.83
2018-04-09T14:11:28.441Z,23.46
2018-04-09T14:13:55.937Z,23.36
2018-04-09T14:16:23.501Z,23.45
2018-04-09T14:18:51.450Z,22.92
2018-04-09T14:21:18.961Z,22.45
2018-04-09T14:23:46.529Z,22.63
2018-04-09T14:26:14.070Z,20.70
2018-04-09T14:28:41.566Z,20.52
2018-04-09T14:31:09.095Z,20.99
2018-04-09T14:33:36.573Z,21.21
2018-04-09T14:36:04.114Z,20.82
2018-04-09T14:38:31.600Z,21.11
2018-04-09T14:40:59.109Z,21.17
2018-04-09T14:43:26.640Z,21.46
2018-04-09T14:45:54.179Z,21.17
2018-04-09T14:48:21.701Z,21.75
2018-04-09T14:50:49.230Z,22.08
2018-04-09T14:53:16.712Z,22.39
2018-04-09T14:55:44.277Z,22.44
2018-04-09T14:58:11.833Z,22.38
2018-04-09T15:00:39.334Z,22.51
2018-04-09T15:03:06.949Z,22.53
2018-04-09T15:05:34.493Z,22.70
2018-04-09T15:08:02.054Z,22.61
2018-04-09T15:10:29.587Z,22.44
2018-04-09T15:12:57.179Z,22.10
2018-04-09T15:15:24.722Z,21.79
2018-04-09T15:17:52.253Z,21.61
2018-04-09T15:20:19.805Z,21.00
2018-04-09T15:22:47.369Z,21.09
2018-04-09T15:25:14.865Z,20.90
2018-04-09T15:27:42.423Z,20.55
2018-04-09T15:30:09.998Z,20.83
2018-04-09T15:32:37.517Z,20.50
2018-04-09T15:35:05.054Z,20.33
2018-04-09T15:37:32.560Z,20.00
2018-04-09T15:40:00.055Z,19.95
2018-04-09T15:42:27.570Z,20.01
2018-04-09T15:44:55.050Z,19.96
2018-04-09T15:47:22.593Z,19.98
2018-04-09T15:49:50.087Z,19.93
2018-04-09T15:52:18.045Z,19.90
2018-04-09T15:54:45.628Z,19.79
2018-04-09T15:57:13.127Z,19.60
2018-04-09T15:59:40.646Z,19.65
2018-04-09T16:02:08.213Z,19.76
2018-04-09T16:04:35.705Z,19.65
2018-04-09T16:07:03.474Z,19.68
2018-04-09T16:09:30.989Z,19.72
2018-04-09T16:11:58.493Z,19.79
2018-04-09T16:14:26.023Z,19.90
2018-04-09T16:16:53.572Z,19.87
2018-04-09T16:19:21.058Z,20.00
2018-04-09T16:21:48.595Z,20.03
2018-04-09T16:24:16.073Z,19.88
2018-04-09T16:26:43.688Z,19.77
2018-04-09T16:29:11.174Z,19.89
2018-04-09T16:31:38.674Z,20.12
2018-04-09T16:34:06.173Z,20.27
2018-04-09T16:36:33.651Z,19.98
2018-04-09T16:39:01.153Z,20.04
2018-04-09T16:41:28.634Z,20.24
2018-04-09T16:43:56.137Z,20.26
2018-04-09T16:46:23.614Z,19.97
2018-04-09T16:48:51.153Z,19.87
2018-04-09T16:51:18.736Z,19.97
2018-04-09T16:53:46.245Z,20.10
2018-04-09T16:56:13.725Z,19.87
2018-04-09T16:58:41.247Z,19.85
2018-04-09T17:01:08.845Z,19.64
2018-04-09T17:03:36.361Z,19.74
2018-04-09T17:06:03.853Z,19.62
2018-04-09T17:08:31.349Z,19.68
2018-04-09T17:10:58.834Z,19.58
2018-04-09T17:13:26.333Z,19.58
2018-04-09T17:15:54.057Z,19.47
2018-04-09T17:18:21.604Z,19.41
2018-04-09T17:20:49.276Z,19.31
2018-04-09T17:23:16.765Z,19.24
2018-04-09T17:25:44.248Z,19.14
2018-04-09T17:28:11.786Z,19.03
2018-04-09T17:33:11.267Z,18.78
2018-04-09T17:35:38.859Z,18.58
2018-04-09T17:38:06.462Z,18.54
2018-04-09T17:40:33.960Z,18.39
2018-04-09T17:43:01.565Z,18.22
2018-04-09T17:45:29.137Z,18.13
2018-04-09T17:47:56.701Z,17.98
2018-04-09T17:50:24.226Z,17.82
2018-04-09T17:52:51.736Z,17.71
2018-04-09T17:55:19.215Z,17.50
2018-04-09T17:57:46.706Z,17.39
2018-04-09T18:00:14.210Z,17.27
2018-04-09T18:02:41.709Z,17.14
2018-04-09T18:05:09.244Z,16.95
2018-04-09T18:07:36.740Z,16.84
2018-04-09T18:10:04.277Z,16.86
2018-04-09T18:12:31.831Z,16.91
2018-04-09T18:14:59.328Z,16.80
2018-04-09T18:17:26.937Z,16.46
2018-04-09T18:19:54.464Z,16.35
2018-04-09T18:22:21.968Z,16.30
2018-04-09T18:24:49.473Z,16.05
2018-04-09T18:27:16.953Z,15.94
2018-04-09T18:29:45.266Z,15.98
2018-04-09T18:32:12.764Z,15.93
2018-04-09T18:34:40.776Z,15.79
2018-04-09T18:37:08.338Z,15.67
2018-04-09T18:39:35.864Z,15.52
2018-04-09T18:42:03.353Z,15.43
2018-04-09T18:44:31.699Z,15.33
2018-04-09T18:46:59.216Z,15.39
2018-04-09T18:49:26.746Z,15.41
2018-04-09T18:51:55.209Z,15.41
2018-04-09T18:54:22.798Z,15.51
2018-04-09T18:56:50.374Z,15.36
2018-04-09T18:59:17.890Z,15.40
2018-04-09T19:01:45.377Z,15.34
2018-04-09T19:04:12.894Z,15.32
2018-04-09T19:06:40.407Z,15.26
2018-04-09T19:09:08.097Z,15.29
2018-04-09T19:11:35.564Z,15.28
2018-04-09T19:14:03.074Z,15.28
2018-04-09T19:16:30.578Z,15.33
2018-04-09T19:18:58.112Z,15.36
2018-04-09T19:21:25.642Z,15.37
2018-04-09T19:23:53.179Z,15.38
2018-04-09T19:26:20.718Z,15.39
2018-04-09T19:28:48.229Z,15.42
2018-04-09T19:31:15.734Z,15.43
2018-04-09T19:33:43.256Z,15.43
2018-04-09T19:36:16.424Z,15.42
2018-04-09T19:38:49.466Z,15.40
2018-04-09T19:41:17.358Z,15.36
2018-04-09T19:43:44.937Z,15.37
2018-04-09T19:46:12.458Z,15.52
2018-04-09T19:48:39.977Z,15.46
2018-04-09T19:51:07.476Z,15.38
2018-04-09T19:53:35.750Z,15.36
2018-04-09T19:56:03.514Z,15.23
2018-04-09T19:58:31.037Z,15.12
2018-04-09T20:00:58.577Z,14.92
2018-04-09T20:03:26.068Z,14.79
2018-04-09T20:05:54.429Z,14.97
2018-04-09T20:08:21.944Z,15.09
2018-04-09T20:10:50.436Z,15.30
2018-04-09T20:13:17.936Z,15.27
2018-04-09T20:15:45.456Z,15.43
2018-04-09T20:18:13.557Z,15.50
2018-04-09T20:20:41.126Z,15.20
2018-04-09T20:23:08.639Z,15.08
2018-04-09T20:25:36.222Z,15.02
2018-04-09T20:28:04.739Z,14.92
2018-04-09T20:30:32.322Z,14.85
2018-04-09T20:32:59.854Z,14.77
2018-04-09T20:35:27.379Z,14.73
2018-04-09T20:37:54.870Z,14.69
2018-04-09T20:40:22.414Z,14.68
2018-04-09T20:42:49.974Z,14.64
2018-04-09T20:45:17.522Z,14.60
2018-04-09T20:47:45.033Z,14.61
2018-04-09T20:50:12.531Z,14.61
2018-04-09T20:52:40.806Z,14.70
2018-04-09T20:55:08.315Z,14.74
2018-04-09T20:57:35.846Z,14.76
2018-04-09T21:00:03.336Z,15.14
2018-04-09T21:02:30.897Z,15.13
2018-04-09T21:04:58.402Z,15.17
2018-04-09T21:07:25.918Z,15.29
2018-04-09T21:09:53.440Z,15.25
2018-04-09T21:12:20.970Z,15.33
2018-04-09T21:14:48.458Z,15.13
2018-04-09T21:17:15.957Z,15.05
2018-04-09T21:19:43.449Z,15.03
2018-04-09T21:22:10.953Z,14.97
2018-04-09T21:24:38.479Z,15.38
2018-04-09T21:27:06.136Z,15.48
2018-04-09T21:29:33.617Z,15.39
2018-04-09T21:32:01.806Z,15.55
2018-04-09T21:34:29.296Z,15.62
2018-04-09T21:36:56.785Z,15.71
2018-04-09T21:39:25.146Z,15.67
2018-04-09T21:41:52.648Z,15.68
2018-04-09T21:44:20.991Z,15.87
2018-04-09T21:46:48.561Z,15.94
2018-04-09T21:49:16.610Z,15.90
2018-04-09T21:51:44.097Z,15.93
2018-04-09T21:54:13.399Z,15.99
2018-04-09T21:56:40.949Z,15.89
2018-04-09T21:59:08.601Z,15.74
2018-04-09T22:01:36.149Z,15.70
2018-04-09T22:04:03.656Z,15.73
2018-04-09T22:06:31.210Z,15.83
2018-04-09T22:08:58.716Z,15.79
2018-04-09T22:11:26.231Z,15.72
2018-04-09T22:13:53.716Z,15.71
2018-04-09T22:16:21.245Z,15.60
2018-04-09T22:18:48.725Z,15.46
2018-04-09T22:21:16.215Z,15.35
2018-04-09T22:23:43.716Z,15.22
2018-04-09T22:26:11.185Z,15.22
2018-04-09T22:28:38.690Z,15.19
2018-04-09T22:31:06.469Z,15.04
2018-04-09T22:33:34.069Z,14.86
2018-04-09T22:36:01.572Z,14.69
2018-04-09T22:38:29.085Z,14.52
2018-04-09T22:40:56.584Z,14.43
2018-04-09T22:43:24.109Z,14.43
2018-04-09T22:45:51.589Z,14.29
2018-04-09T22:48:19.109Z,14.26
2018-04-09T22:50:46.602Z,14.15
2018-04-09T22:53:14.085Z,14.33
2018-04-09T22:55:41.557Z,14.29
2018-04-09T22:58:09.069Z,14.37
2018-04-09T23:00:36.564Z,14.38
2018-04-09T23:03:04.138Z,14.40
2018-04-09T23:05:31.661Z,14.29
2018-04-09T23:07:59.307Z,14.13
2018-04-09T23:10:26.805Z,14.03
2018-04-09T23:12:54.374Z,13.99
2018-04-09T23:15:21.874Z,14.05
2018-04-09T23:17:49.601Z,14.20
2018-04-09T23:20:17.146Z,14.47
2018-04-09T23:22:44.704Z,14.60
2018-04-09T23:25:12.287Z,14.65
2018-04-09T23:27:39.860Z,14.57
2018-04-09T23:30:07.364Z,14.52
2018-04-09T23:32:34.865Z,14.54
2018-04-09T23:35:02.361Z,14.48
2018-04-09T23:37:29.957Z,14.43
2018-04-09T23:39:57.449Z,14.46
2018-04-09T23:42:25.024Z,14.44
2018-04-09T23:44:52.557Z,14.37
2018-04-09T23:47:20.103Z,14.34
2018-04-09T23:49:47.629Z,14.29
2018-04-09T23:52:15.220Z,14.23
2018-04-09T23:54:42.778Z,14.17
2018-04-09T23:57:10.281Z,14.10
2018-04-09T23:59:37.873Z,14.06
